Terminal Aerodrome Forecast
Issued by NWS

Home | Current Version | Previous Version | Text Only | Print | Product List | Glossary On
Versions: 1 2 3 4 5 6 7 8 9 10 11 12 13
000
FTUS45 KREV 261740
TAFMMH
TAF
KMMH 261740Z 2618/2718 VRB04KT P6SM SCT070 OVC100
     FM262100 21011KT P6SM SCT110 OVC150
     FM262300 25011G18KT P6SM BKN080 OVC120
     FM270300 28010KT P6SM BKN050 OVC090
     FM271000 26014G22KT P6SM VCSH BKN045 OVC080=

USA.gov is the U.S. government's official web portal to all federal, state and local government web resources and services.